Waller, Pennsylvania
Current Conditions -  °F | °C
As of 5:15 AM on Sunday 23 Nov 2014 (Local Time) from KHZL Reporting Station
Overcast Overcast  
Wind Chill: 39°   Ceiling: 6500
Heat Index: 39°   Visibility: 10mi
Dew Point: 21°   Wind: 0mph
Humidity: 49%   Direction: NA
Pressure: 30.16"   Gusts: NA
Location:  41.2534°N, 76.3299°W
Report Text: KHZL 231015Z AUTO 00000KT 10SM OVC065 04/M06 A3016 RMK AO2
Loading
Personal Weather Stations






























Interactive Weather Map New forecast layout! Learn more

10-Day Weather Forecast

Advertisements
Track Severe Weather on mobile